sensor_id;sensor_type;location;lat;lon;timestamp;P1;durP1;ratioP1;P2;durP2;ratioP2
30948;SDS011;17637;51.984;21.208;2023-08-30T00:00:25;47.42;;;37.03;;
30948;SDS011;17637;51.984;21.208;2023-08-30T00:02:57;43.53;;;36.53;;
30948;SDS011;17637;51.984;21.208;2023-08-30T00:05:29;46.50;;;39.03;;
30948;SDS011;17637;51.984;21.208;2023-08-30T00:08:01;51.03;;;40.50;;
30948;SDS011;17637;51.984;21.208;2023-08-30T00:10:33;58.28;;;44.10;;
30948;SDS011;17637;51.984;21.208;2023-08-30T00:13:05;56.83;;;44.63;;
30948;SDS011;17637;51.984;21.208;2023-08-30T00:15:37;53.63;;;41.78;;
30948;SDS011;17637;51.984;21.208;2023-08-30T00:18:09;62.38;;;46.08;;
30948;SDS011;17637;51.984;21.208;2023-08-30T00:20:42;51.13;;;39.85;;
30948;SDS011;17637;51.984;21.208;2023-08-30T00:23:13;46.10;;;38.42;;
30948;SDS011;17637;51.984;21.208;2023-08-30T00:25:45;44.58;;;35.05;;
30948;SDS011;17637;51.984;21.208;2023-08-30T00:28:17;40.78;;;34.20;;
30948;SDS011;17637;51.984;21.208;2023-08-30T00:30:53;46.60;;;39.05;;
30948;SDS011;17637;51.984;21.208;2023-08-30T00:33:26;42.97;;;36.53;;
30948;SDS011;17637;51.984;21.208;2023-08-30T00:35:58;58.28;;;43.65;;
30948;SDS011;17637;51.984;21.208;2023-08-30T00:38:32;42.00;;;36.38;;
30948;SDS011;17637;51.984;21.208;2023-08-30T00:41:05;45.85;;;34.17;;
30948;SDS011;17637;51.984;21.208;2023-08-30T00:43:37;44.33;;;36.80;;
30948;SDS011;17637;51.984;21.208;2023-08-30T00:46:09;44.72;;;37.40;;
30948;SDS011;17637;51.984;21.208;2023-08-30T00:48:41;94.65;;;51.10;;
30948;SDS011;17637;51.984;21.208;2023-08-30T00:51:13;55.08;;;41.22;;
30948;SDS011;17637;51.984;21.208;2023-08-30T00:53:45;46.97;;;37.20;;
30948;SDS011;17637;51.984;21.208;2023-08-30T00:56:18;41.65;;;32.25;;
30948;SDS011;17637;51.984;21.208;2023-08-30T00:58:51;57.47;;;41.47;;
30948;SDS011;17637;51.984;21.208;2023-08-30T01:01:23;65.30;;;44.05;;
30948;SDS011;17637;51.984;21.208;2023-08-30T01:03:54;47.53;;;35.10;;
30948;SDS011;17637;51.984;21.208;2023-08-30T01:06:26;38.50;;;29.92;;
30948;SDS011;17637;51.984;21.208;2023-08-30T01:08:58;32.20;;;28.17;;
30948;SDS011;17637;51.984;21.208;2023-08-30T01:11:32;49.78;;;34.28;;
30948;SDS011;17637;51.984;21.208;2023-08-30T01:14:15;56.97;;;42.22;;
30948;SDS011;17637;51.984;21.208;2023-08-30T01:17:00;43.30;;;34.90;;
30948;SDS011;17637;51.984;21.208;2023-08-30T01:28:09;54.78;;;41.90;;
30948;SDS011;17637;51.984;21.208;2023-08-30T01:30:42;56.78;;;40.55;;
30948;SDS011;17637;51.984;21.208;2023-08-30T01:33:16;60.50;;;44.65;;
30948;SDS011;17637;51.984;21.208;2023-08-30T01:35:50;55.75;;;41.78;;
30948;SDS011;17637;51.984;21.208;2023-08-30T01:38:25;62.10;;;44.63;;
30948;SDS011;17637;51.984;21.208;2023-08-30T01:40:59;57.20;;;43.42;;
30948;SDS011;17637;51.984;21.208;2023-08-30T01:43:31;62.70;;;45.42;;
30948;SDS011;17637;51.984;21.208;2023-08-30T01:46:04;60.38;;;42.45;;
30948;SDS011;17637;51.984;21.208;2023-08-30T01:48:37;66.50;;;46.72;;
30948;SDS011;17637;51.984;21.208;2023-08-30T01:51:10;75.55;;;47.88;;
30948;SDS011;17637;51.984;21.208;2023-08-30T01:53:43;50.50;;;39.25;;
30948;SDS011;17637;51.984;21.208;2023-08-30T01:56:17;59.90;;;41.55;;
30948;SDS011;17637;51.984;21.208;2023-08-30T01:58:49;44.70;;;36.65;;
30948;SDS011;17637;51.984;21.208;2023-08-30T02:01:21;67.28;;;46.53;;
30948;SDS011;17637;51.984;21.208;2023-08-30T02:03:53;50.35;;;41.17;;
30948;SDS011;17637;51.984;21.208;2023-08-30T02:06:26;55.50;;;40.92;;
30948;SDS011;17637;51.984;21.208;2023-08-30T02:09:14;50.97;;;39.33;;
30948;SDS011;17637;51.984;21.208;2023-08-30T02:11:52;45.88;;;37.65;;
30948;SDS011;17637;51.984;21.208;2023-08-30T02:14:27;44.90;;;35.33;;
30948;SDS011;17637;51.984;21.208;2023-08-30T02:17:01;58.15;;;40.75;;
30948;SDS011;17637;51.984;21.208;2023-08-30T02:19:34;51.95;;;40.58;;
30948;SDS011;17637;51.984;21.208;2023-08-30T02:22:06;51.58;;;40.65;;
30948;SDS011;17637;51.984;21.208;2023-08-30T02:24:38;49.65;;;39.95;;
30948;SDS011;17637;51.984;21.208;2023-08-30T02:27:10;52.22;;;41.05;;
30948;SDS011;17637;51.984;21.208;2023-08-30T02:29:41;53.17;;;41.05;;
30948;SDS011;17637;51.984;21.208;2023-08-30T02:32:13;58.60;;;42.13;;
30948;SDS011;17637;51.984;21.208;2023-08-30T02:34:50;45.63;;;34.92;;
30948;SDS011;17637;51.984;21.208;2023-08-30T02:37:23;61.03;;;43.92;;
30948;SDS011;17637;51.984;21.208;2023-08-30T02:39:55;50.75;;;39.72;;
30948;SDS011;17637;51.984;21.208;2023-08-30T02:42:27;67.18;;;46.78;;
30948;SDS011;17637;51.984;21.208;2023-08-30T02:44:59;66.00;;;45.25;;
30948;SDS011;17637;51.984;21.208;2023-08-30T02:47:31;68.03;;;46.85;;
30948;SDS011;17637;51.984;21.208;2023-08-30T02:50:03;56.70;;;42.10;;
30948;SDS011;17637;51.984;21.208;2023-08-30T02:52:35;75.78;;;48.40;;
30948;SDS011;17637;51.984;21.208;2023-08-30T02:55:07;47.72;;;35.30;;
30948;SDS011;17637;51.984;21.208;2023-08-30T02:57:39;65.22;;;46.88;;
30948;SDS011;17637;51.984;21.208;2023-08-30T03:00:11;64.85;;;43.30;;
30948;SDS011;17637;51.984;21.208;2023-08-30T03:02:44;59.92;;;43.05;;
30948;SDS011;17637;51.984;21.208;2023-08-30T03:05:17;40.05;;;32.50;;
30948;SDS011;17637;51.984;21.208;2023-08-30T03:07:49;52.22;;;37.83;;
30948;SDS011;17637;51.984;21.208;2023-08-30T03:10:22;59.90;;;40.83;;
30948;SDS011;17637;51.984;21.208;2023-08-30T03:12:54;63.75;;;41.97;;
30948;SDS011;17637;51.984;21.208;2023-08-30T03:15:26;60.20;;;43.13;;
30948;SDS011;17637;51.984;21.208;2023-08-30T03:17:59;62.88;;;43.95;;
30948;SDS011;17637;51.984;21.208;2023-08-30T03:20:31;50.28;;;36.40;;
30948;SDS011;17637;51.984;21.208;2023-08-30T03:23:03;58.95;;;40.88;;
30948;SDS011;17637;51.984;21.208;2023-08-30T03:25:35;70.55;;;43.92;;
30948;SDS011;17637;51.984;21.208;2023-08-30T03:28:07;71.90;;;45.33;;
30948;SDS011;17637;51.984;21.208;2023-08-30T03:30:39;64.95;;;41.33;;
30948;SDS011;17637;51.984;21.208;2023-08-30T03:33:11;55.03;;;41.20;;
30948;SDS011;17637;51.984;21.208;2023-08-30T03:35:44;63.20;;;43.33;;
30948;SDS011;17637;51.984;21.208;2023-08-30T03:38:16;69.38;;;46.50;;
30948;SDS011;17637;51.984;21.208;2023-08-30T03:40:52;43.03;;;34.03;;
30948;SDS011;17637;51.984;21.208;2023-08-30T03:43:25;48.85;;;36.80;;
30948;SDS011;17637;51.984;21.208;2023-08-30T03:45:57;65.30;;;44.00;;
30948;SDS011;17637;51.984;21.208;2023-08-30T03:48:30;68.55;;;45.17;;
30948;SDS011;17637;51.984;21.208;2023-08-30T03:51:02;66.22;;;45.17;;
30948;SDS011;17637;51.984;21.208;2023-08-30T03:53:34;54.15;;;40.45;;
30948;SDS011;17637;51.984;21.208;2023-08-30T03:56:06;73.05;;;46.08;;
30948;SDS011;17637;51.984;21.208;2023-08-30T03:58:39;74.18;;;47.35;;
30948;SDS011;17637;51.984;21.208;2023-08-30T04:01:11;49.58;;;35.67;;
30948;SDS011;17637;51.984;21.208;2023-08-30T04:03:43;66.80;;;44.15;;
30948;SDS011;17637;51.984;21.208;2023-08-30T04:06:15;81.72;;;46.22;;
30948;SDS011;17637;51.984;21.208;2023-08-30T04:08:46;77.88;;;46.63;;
30948;SDS011;17637;51.984;21.208;2023-08-30T04:11:18;66.53;;;45.35;;
30948;SDS011;17637;51.984;21.208;2023-08-30T04:13:50;60.78;;;43.28;;
30948;SDS011;17637;51.984;21.208;2023-08-30T04:16:23;61.45;;;42.10;;
30948;SDS011;17637;51.984;21.208;2023-08-30T04:18:55;60.88;;;42.25;;
30948;SDS011;17637;51.984;21.208;2023-08-30T04:21:27;84.07;;;47.75;;
30948;SDS011;17637;51.984;21.208;2023-08-30T04:23:59;55.17;;;38.22;;
30948;SDS011;17637;51.984;21.208;2023-08-30T04:26:31;54.38;;;38.22;;
30948;SDS011;17637;51.984;21.208;2023-08-30T04:29:03;68.25;;;39.38;;
30948;SDS011;17637;51.984;21.208;2023-08-30T04:31:35;56.50;;;39.33;;
30948;SDS011;17637;51.984;21.208;2023-08-30T04:34:07;56.95;;;37.65;;
30948;SDS011;17637;51.984;21.208;2023-08-30T04:36:39;60.25;;;37.40;;
30948;SDS011;17637;51.984;21.208;2023-08-30T04:39:12;52.72;;;38.03;;
30948;SDS011;17637;51.984;21.208;2023-08-30T04:41:45;51.38;;;37.17;;
30948;SDS011;17637;51.984;21.208;2023-08-30T04:44:17;51.45;;;36.47;;
30948;SDS011;17637;51.984;21.208;2023-08-30T04:46:50;72.20;;;44.55;;
30948;SDS011;17637;51.984;21.208;2023-08-30T04:49:24;53.58;;;40.50;;
30948;SDS011;17637;51.984;21.208;2023-08-30T04:52:00;53.15;;;40.22;;
30948;SDS011;17637;51.984;21.208;2023-08-30T04:54:32;56.58;;;41.38;;
30948;SDS011;17637;51.984;21.208;2023-08-30T04:57:04;46.72;;;35.28;;
30948;SDS011;17637;51.984;21.208;2023-08-30T04:59:36;63.58;;;42.15;;
30948;SDS011;17637;51.984;21.208;2023-08-30T05:02:09;55.53;;;40.20;;
30948;SDS011;17637;51.984;21.208;2023-08-30T05:04:41;59.78;;;38.88;;
30948;SDS011;17637;51.984;21.208;2023-08-30T05:07:13;59.33;;;39.75;;
30948;SDS011;17637;51.984;21.208;2023-08-30T05:09:45;53.90;;;35.33;;
30948;SDS011;17637;51.984;21.208;2023-08-30T05:12:17;51.97;;;38.53;;
30948;SDS011;17637;51.984;21.208;2023-08-30T05:14:49;44.55;;;35.35;;
30948;SDS011;17637;51.984;21.208;2023-08-30T05:17:21;35.90;;;29.60;;
30948;SDS011;17637;51.984;21.208;2023-08-30T05:19:53;41.88;;;33.63;;
30948;SDS011;17637;51.984;21.208;2023-08-30T05:22:24;43.92;;;33.88;;
30948;SDS011;17637;51.984;21.208;2023-08-30T05:24:56;40.05;;;31.83;;
30948;SDS011;17637;51.984;21.208;2023-08-30T05:27:28;46.85;;;38.10;;
30948;SDS011;17637;51.984;21.208;2023-08-30T05:30:00;44.75;;;34.10;;
30948;SDS011;17637;51.984;21.208;2023-08-30T05:32:32;41.10;;;32.67;;
30948;SDS011;17637;51.984;21.208;2023-08-30T05:35:04;46.58;;;33.95;;
30948;SDS011;17637;51.984;21.208;2023-08-30T05:37:36;47.90;;;36.03;;
30948;SDS011;17637;51.984;21.208;2023-08-30T05:40:08;47.60;;;36.65;;
30948;SDS011;17637;51.984;21.208;2023-08-30T05:42:41;55.80;;;40.40;;
30948;SDS011;17637;51.984;21.208;2023-08-30T05:45:12;50.15;;;36.85;;
30948;SDS011;17637;51.984;21.208;2023-08-30T05:47:44;55.47;;;40.05;;
30948;SDS011;17637;51.984;21.208;2023-08-30T05:50:16;55.30;;;39.05;;
30948;SDS011;17637;51.984;21.208;2023-08-30T05:52:48;49.55;;;37.38;;
30948;SDS011;17637;51.984;21.208;2023-08-30T05:55:20;49.00;;;37.17;;
30948;SDS011;17637;51.984;21.208;2023-08-30T05:57:52;46.70;;;34.70;;
30948;SDS011;17637;51.984;21.208;2023-08-30T06:00:24;49.92;;;37.85;;
30948;SDS011;17637;51.984;21.208;2023-08-30T06:02:57;60.63;;;42.20;;
30948;SDS011;17637;51.984;21.208;2023-08-30T06:05:29;58.53;;;37.75;;
30948;SDS011;17637;51.984;21.208;2023-08-30T06:08:01;50.22;;;38.13;;
30948;SDS011;17637;51.984;21.208;2023-08-30T06:10:33;52.05;;;39.40;;
30948;SDS011;17637;51.984;21.208;2023-08-30T06:13:05;45.85;;;33.30;;
30948;SDS011;17637;51.984;21.208;2023-08-30T06:15:37;54.70;;;40.00;;
30948;SDS011;17637;51.984;21.208;2023-08-30T06:18:10;52.92;;;37.60;;
30948;SDS011;17637;51.984;21.208;2023-08-30T06:20:43;52.17;;;36.70;;
30948;SDS011;17637;51.984;21.208;2023-08-30T06:23:17;49.42;;;38.28;;
30948;SDS011;17637;51.984;21.208;2023-08-30T06:25:54;49.42;;;37.88;;
30948;SDS011;17637;51.984;21.208;2023-08-30T06:28:26;46.03;;;34.70;;
30948;SDS011;17637;51.984;21.208;2023-08-30T06:30:59;40.83;;;30.17;;
30948;SDS011;17637;51.984;21.208;2023-08-30T06:33:31;47.75;;;37.25;;
30948;SDS011;17637;51.984;21.208;2023-08-30T06:36:02;45.20;;;34.65;;
30948;SDS011;17637;51.984;21.208;2023-08-30T06:38:35;59.92;;;41.03;;
30948;SDS011;17637;51.984;21.208;2023-08-30T06:41:07;45.13;;;35.83;;
30948;SDS011;17637;51.984;21.208;2023-08-30T06:43:39;46.05;;;35.05;;
30948;SDS011;17637;51.984;21.208;2023-08-30T06:46:10;48.60;;;35.90;;
30948;SDS011;17637;51.984;21.208;2023-08-30T06:48:42;46.80;;;35.00;;
30948;SDS011;17637;51.984;21.208;2023-08-30T06:51:14;51.40;;;33.20;;
30948;SDS011;17637;51.984;21.208;2023-08-30T06:53:46;49.38;;;35.67;;
30948;SDS011;17637;51.984;21.208;2023-08-30T06:56:18;49.90;;;33.40;;
30948;SDS011;17637;51.984;21.208;2023-08-30T06:58:50;49.33;;;32.35;;
30948;SDS011;17637;51.984;21.208;2023-08-30T07:01:22;57.08;;;37.38;;
30948;SDS011;17637;51.984;21.208;2023-08-30T07:03:54;44.92;;;32.58;;
30948;SDS011;17637;51.984;21.208;2023-08-30T07:06:26;48.40;;;34.70;;
30948;SDS011;17637;51.984;21.208;2023-08-30T07:09:01;51.00;;;35.58;;
30948;SDS011;17637;51.984;21.208;2023-08-30T07:11:34;52.42;;;34.55;;
30948;SDS011;17637;51.984;21.208;2023-08-30T07:14:06;45.80;;;34.53;;
30948;SDS011;17637;51.984;21.208;2023-08-30T07:16:38;50.75;;;36.33;;
30948;SDS011;17637;51.984;21.208;2023-08-30T07:19:10;51.97;;;35.35;;
30948;SDS011;17637;51.984;21.208;2023-08-30T07:21:42;55.92;;;38.35;;
30948;SDS011;17637;51.984;21.208;2023-08-30T07:24:14;50.55;;;37.05;;
30948;SDS011;17637;51.984;21.208;2023-08-30T07:26:46;52.20;;;34.75;;
30948;SDS011;17637;51.984;21.208;2023-08-30T07:29:18;46.03;;;32.25;;
30948;SDS011;17637;51.984;21.208;2023-08-30T07:31:50;50.10;;;35.13;;
30948;SDS011;17637;51.984;21.208;2023-08-30T07:34:25;52.85;;;35.58;;
30948;SDS011;17637;51.984;21.208;2023-08-30T07:36:57;53.05;;;38.38;;
30948;SDS011;17637;51.984;21.208;2023-08-30T07:39:28;50.83;;;36.08;;
30948;SDS011;17637;51.984;21.208;2023-08-30T07:42:00;44.58;;;34.40;;
30948;SDS011;17637;51.984;21.208;2023-08-30T07:44:32;55.53;;;39.03;;
30948;SDS011;17637;51.984;21.208;2023-08-30T07:47:04;45.13;;;32.92;;
30948;SDS011;17637;51.984;21.208;2023-08-30T07:49:36;53.78;;;38.22;;
30948;SDS011;17637;51.984;21.208;2023-08-30T07:52:08;53.50;;;37.10;;
30948;SDS011;17637;51.984;21.208;2023-08-30T07:54:42;48.72;;;35.70;;
30948;SDS011;17637;51.984;21.208;2023-08-30T07:57:14;54.83;;;35.95;;
30948;SDS011;17637;51.984;21.208;2023-08-30T07:59:46;58.08;;;37.95;;
30948;SDS011;17637;51.984;21.208;2023-08-30T08:02:18;53.30;;;37.85;;
30948;SDS011;17637;51.984;21.208;2023-08-30T08:04:50;56.33;;;37.20;;
30948;SDS011;17637;51.984;21.208;2023-08-30T08:07:23;51.88;;;35.17;;
30948;SDS011;17637;51.984;21.208;2023-08-30T08:09:59;52.45;;;36.33;;
30948;SDS011;17637;51.984;21.208;2023-08-30T08:12:32;52.80;;;34.63;;
30948;SDS011;17637;51.984;21.208;2023-08-30T08:15:04;46.35;;;33.42;;
30948;SDS011;17637;51.984;21.208;2023-08-30T08:17:36;54.30;;;32.92;;
30948;SDS011;17637;51.984;21.208;2023-08-30T08:20:09;36.05;;;25.88;;
30948;SDS011;17637;51.984;21.208;2023-08-30T08:22:41;28.98;;;21.55;;
30948;SDS011;17637;51.984;21.208;2023-08-30T08:25:13;23.48;;;19.20;;
30948;SDS011;17637;51.984;21.208;2023-08-30T08:27:45;23.10;;;18.20;;
30948;SDS011;17637;51.984;21.208;2023-08-30T08:30:17;22.15;;;18.30;;
30948;SDS011;17637;51.984;21.208;2023-08-30T08:32:49;23.92;;;18.58;;
30948;SDS011;17637;51.984;21.208;2023-08-30T08:35:21;25.63;;;19.15;;
30948;SDS011;17637;51.984;21.208;2023-08-30T08:37:53;17.30;;;15.15;;
30948;SDS011;17637;51.984;21.208;2023-08-30T08:40:27;16.80;;;14.73;;
30948;SDS011;17637;51.984;21.208;2023-08-30T08:43:13;13.98;;;12.57;;
30948;SDS011;17637;51.984;21.208;2023-08-30T08:45:47;15.70;;;12.77;;
30948;SDS011;17637;51.984;21.208;2023-08-30T08:48:20;19.25;;;14.48;;
30948;SDS011;17637;51.984;21.208;2023-08-30T08:50:53;14.27;;;11.25;;
30948;SDS011;17637;51.984;21.208;2023-08-30T08:53:26;12.75;;;10.52;;
30948;SDS011;17637;51.984;21.208;2023-08-30T08:55:59;15.00;;;11.98;;
30948;SDS011;17637;51.984;21.208;2023-08-30T08:58:34;17.63;;;12.40;;
30948;SDS011;17637;51.984;21.208;2023-08-30T09:01:08;17.63;;;12.30;;
30948;SDS011;17637;51.984;21.208;2023-08-30T09:03:55;13.32;;;10.88;;
30948;SDS011;17637;51.984;21.208;2023-08-30T09:06:27;12.80;;;10.07;;
30948;SDS011;17637;51.984;21.208;2023-08-30T09:09:03;16.05;;;10.93;;
30948;SDS011;17637;51.984;21.208;2023-08-30T09:11:36;10.13;;;8.65;;
30948;SDS011;17637;51.984;21.208;2023-08-30T09:14:21;13.43;;;7.85;;
30948;SDS011;17637;51.984;21.208;2023-08-30T09:16:54;18.20;;;9.40;;
30948;SDS011;17637;51.984;21.208;2023-08-30T09:19:27;8.73;;;7.50;;
30948;SDS011;17637;51.984;21.208;2023-08-30T09:21:59;6.88;;;6.18;;
30948;SDS011;17637;51.984;21.208;2023-08-30T09:24:38;11.38;;;7.32;;
30948;SDS011;17637;51.984;21.208;2023-08-30T09:27:11;7.15;;;6.43;;
30948;SDS011;17637;51.984;21.208;2023-08-30T09:29:43;6.90;;;6.18;;
30948;SDS011;17637;51.984;21.208;2023-08-30T09:32:20;9.73;;;6.75;;
30948;SDS011;17637;51.984;21.208;2023-08-30T09:34:53;11.10;;;8.15;;
30948;SDS011;17637;51.984;21.208;2023-08-30T09:37:25;7.15;;;6.45;;
30948;SDS011;17637;51.984;21.208;2023-08-30T09:39:58;5.20;;;4.70;;
30948;SDS011;17637;51.984;21.208;2023-08-30T09:42:29;7.57;;;6.78;;
30948;SDS011;17637;51.984;21.208;2023-08-30T09:45:04;9.40;;;8.18;;
30948;SDS011;17637;51.984;21.208;2023-08-30T09:47:36;8.68;;;7.88;;
30948;SDS011;17637;51.984;21.208;2023-08-30T09:50:11;7.53;;;6.63;;
30948;SDS011;17637;51.984;21.208;2023-08-30T09:52:44;8.90;;;8.00;;
30948;SDS011;17637;51.984;21.208;2023-08-30T09:55:21;9.15;;;8.25;;
30948;SDS011;17637;51.984;21.208;2023-08-30T09:57:54;8.95;;;8.07;;
30948;SDS011;17637;51.984;21.208;2023-08-30T10:00:26;9.23;;;8.32;;
30948;SDS011;17637;51.984;21.208;2023-08-30T10:02:59;10.15;;;8.50;;
30948;SDS011;17637;51.984;21.208;2023-08-30T10:05:51;12.32;;;8.05;;
30948;SDS011;17637;51.984;21.208;2023-08-30T10:08:23;8.38;;;7.25;;
30948;SDS011;17637;51.984;21.208;2023-08-30T10:11:00;10.73;;;9.50;;
30948;SDS011;17637;51.984;21.208;2023-08-30T10:13:34;9.18;;;7.78;;
30948;SDS011;17637;51.984;21.208;2023-08-30T10:16:08;6.97;;;6.28;;
30948;SDS011;17637;51.984;21.208;2023-08-30T10:18:47;8.57;;;7.78;;
30948;SDS011;17637;51.984;21.208;2023-08-30T10:21:36;8.07;;;7.28;;
30948;SDS011;17637;51.984;21.208;2023-08-30T10:24:09;7.00;;;5.22;;
30948;SDS011;17637;51.984;21.208;2023-08-30T10:27:01;5.60;;;5.10;;
30948;SDS011;17637;51.984;21.208;2023-08-30T10:29:37;5.57;;;4.38;;
30948;SDS011;17637;51.984;21.208;2023-08-30T10:32:10;4.88;;;4.30;;
30948;SDS011;17637;51.984;21.208;2023-08-30T10:34:47;5.38;;;3.72;;
30948;SDS011;17637;51.984;21.208;2023-08-30T10:37:24;4.57;;;4.18;;
30948;SDS011;17637;51.984;21.208;2023-08-30T10:40:01;5.07;;;4.25;;
30948;SDS011;17637;51.984;21.208;2023-08-30T10:42:37;4.10;;;3.70;;
30948;SDS011;17637;51.984;21.208;2023-08-30T10:45:09;4.60;;;4.15;;
30948;SDS011;17637;51.984;21.208;2023-08-30T10:47:44;4.13;;;3.72;;
30948;SDS011;17637;51.984;21.208;2023-08-30T10:50:16;4.10;;;3.72;;
30948;SDS011;17637;51.984;21.208;2023-08-30T10:52:54;3.97;;;3.50;;
30948;SDS011;17637;51.984;21.208;2023-08-30T10:55:27;3.03;;;2.70;;
30948;SDS011;17637;51.984;21.208;2023-08-30T10:57:59;3.72;;;3.22;;
30948;SDS011;17637;51.984;21.208;2023-08-30T11:00:34;4.30;;;3.90;;
30948;SDS011;17637;51.984;21.208;2023-08-30T11:03:10;3.95;;;3.28;;
30948;SDS011;17637;51.984;21.208;2023-08-30T11:05:42;4.82;;;3.67;;
30948;SDS011;17637;51.984;21.208;2023-08-30T11:08:15;3.80;;;3.50;;
30948;SDS011;17637;51.984;21.208;2023-08-30T11:10:47;4.57;;;4.18;;
30948;SDS011;17637;51.984;21.208;2023-08-30T11:13:19;5.03;;;4.53;;
30948;SDS011;17637;51.984;21.208;2023-08-30T11:15:53;5.15;;;4.68;;
30948;SDS011;17637;51.984;21.208;2023-08-30T11:18:25;4.53;;;4.13;;
30948;SDS011;17637;51.984;21.208;2023-08-30T11:21:01;4.90;;;4.50;;
30948;SDS011;17637;51.984;21.208;2023-08-30T11:23:34;5.97;;;5.47;;
30948;SDS011;17637;51.984;21.208;2023-08-30T11:26:06;7.45;;;6.45;;
30948;SDS011;17637;51.984;21.208;2023-08-30T11:28:38;6.30;;;5.60;;
30948;SDS011;17637;51.984;21.208;2023-08-30T11:31:23;6.50;;;5.90;;
30948;SDS011;17637;51.984;21.208;2023-08-30T11:33:59;7.47;;;5.72;;
30948;SDS011;17637;51.984;21.208;2023-08-30T11:36:32;8.80;;;6.95;;
30948;SDS011;17637;51.984;21.208;2023-08-30T11:39:07;6.78;;;5.45;;
30948;SDS011;17637;51.984;21.208;2023-08-30T11:41:41;5.10;;;4.60;;
30948;SDS011;17637;51.984;21.208;2023-08-30T11:44:14;6.45;;;4.28;;
30948;SDS011;17637;51.984;21.208;2023-08-30T11:46:48;4.90;;;4.40;;
30948;SDS011;17637;51.984;21.208;2023-08-30T11:49:21;4.40;;;4.00;;
30948;SDS011;17637;51.984;21.208;2023-08-30T11:51:53;3.35;;;2.72;;
30948;SDS011;17637;51.984;21.208;2023-08-30T11:54:27;3.50;;;3.20;;
30948;SDS011;17637;51.984;21.208;2023-08-30T11:57:00;5.13;;;3.90;;
30948;SDS011;17637;51.984;21.208;2023-08-30T11:59:34;5.05;;;4.03;;
30948;SDS011;17637;51.984;21.208;2023-08-30T12:02:07;4.40;;;3.25;;
30948;SDS011;17637;51.984;21.208;2023-08-30T12:04:39;2.90;;;2.58;;
30948;SDS011;17637;51.984;21.208;2023-08-30T12:07:26;2.33;;;2.13;;
30948;SDS011;17637;51.984;21.208;2023-08-30T12:10:05;2.10;;;1.70;;
30948;SDS011;17637;51.984;21.208;2023-08-30T12:12:37;2.47;;;2.10;;
30948;SDS011;17637;51.984;21.208;2023-08-30T12:15:10;1.95;;;1.83;;
30948;SDS011;17637;51.984;21.208;2023-08-30T12:17:42;1.92;;;1.58;;
30948;SDS011;17637;51.984;21.208;2023-08-30T12:20:17;3.70;;;1.48;;
30948;SDS011;17637;51.984;21.208;2023-08-30T12:22:52;1.63;;;1.52;;
30948;SDS011;17637;51.984;21.208;2023-08-30T12:25:24;3.10;;;1.63;;
30948;SDS011;17637;51.984;21.208;2023-08-30T12:27:57;2.65;;;1.50;;
30948;SDS011;17637;51.984;21.208;2023-08-30T12:30:29;1.50;;;1.40;;
30948;SDS011;17637;51.984;21.208;2023-08-30T12:33:01;1.50;;;1.40;;
30948;SDS011;17637;51.984;21.208;2023-08-30T12:35:35;2.88;;;1.88;;
30948;SDS011;17637;51.984;21.208;2023-08-30T12:38:07;2.28;;;1.48;;
30948;SDS011;17637;51.984;21.208;2023-08-30T12:40:41;2.13;;;1.80;;
30948;SDS011;17637;51.984;21.208;2023-08-30T12:43:13;5.18;;;2.15;;
30948;SDS011;17637;51.984;21.208;2023-08-30T12:45:46;4.22;;;2.17;;
30948;SDS011;17637;51.984;21.208;2023-08-30T12:48:19;4.30;;;2.55;;
30948;SDS011;17637;51.984;21.208;2023-08-30T12:50:51;2.30;;;2.10;;
30948;SDS011;17637;51.984;21.208;2023-08-30T12:53:23;4.97;;;2.63;;
30948;SDS011;17637;51.984;21.208;2023-08-30T12:55:55;4.57;;;2.63;;
30948;SDS011;17637;51.984;21.208;2023-08-30T12:58:27;4.15;;;2.75;;
30948;SDS011;17637;51.984;21.208;2023-08-30T13:00:59;4.68;;;2.92;;
30948;SDS011;17637;51.984;21.208;2023-08-30T13:03:31;2.83;;;2.58;;
30948;SDS011;17637;51.984;21.208;2023-08-30T13:06:03;3.22;;;2.92;;
30948;SDS011;17637;51.984;21.208;2023-08-30T13:08:35;2.70;;;2.28;;
30948;SDS011;17637;51.984;21.208;2023-08-30T13:11:07;2.45;;;2.25;;
30948;SDS011;17637;51.984;21.208;2023-08-30T13:13:39;4.53;;;2.45;;
30948;SDS011;17637;51.984;21.208;2023-08-30T13:16:11;2.88;;;2.53;;
30948;SDS011;17637;51.984;21.208;2023-08-30T13:18:43;3.60;;;3.30;;
30948;SDS011;17637;51.984;21.208;2023-08-30T13:21:14;4.30;;;2.80;;
30948;SDS011;17637;51.984;21.208;2023-08-30T13:23:51;4.05;;;2.90;;
30948;SDS011;17637;51.984;21.208;2023-08-30T13:26:23;4.28;;;3.45;;
30948;SDS011;17637;51.984;21.208;2023-08-30T13:28:55;3.08;;;2.67;;
30948;SDS011;17637;51.984;21.208;2023-08-30T13:31:28;3.83;;;3.30;;
30948;SDS011;17637;51.984;21.208;2023-08-30T13:34:00;3.60;;;3.30;;
30948;SDS011;17637;51.984;21.208;2023-08-30T13:36:32;3.67;;;3.38;;
30948;SDS011;17637;51.984;21.208;2023-08-30T13:39:04;4.50;;;3.60;;
30948;SDS011;17637;51.984;21.208;2023-08-30T13:41:36;3.30;;;2.90;;
30948;SDS011;17637;51.984;21.208;2023-08-30T13:44:08;3.20;;;2.90;;
30948;SDS011;17637;51.984;21.208;2023-08-30T13:46:40;3.72;;;3.17;;
30948;SDS011;17637;51.984;21.208;2023-08-30T13:49:13;5.35;;;3.13;;
30948;SDS011;17637;51.984;21.208;2023-08-30T13:51:44;5.85;;;4.10;;
30948;SDS011;17637;51.984;21.208;2023-08-30T13:54:16;4.47;;;3.70;;
30948;SDS011;17637;51.984;21.208;2023-08-30T13:56:48;3.42;;;3.13;;
30948;SDS011;17637;51.984;21.208;2023-08-30T13:59:20;3.65;;;3.35;;
30948;SDS011;17637;51.984;21.208;2023-08-30T14:01:52;3.83;;;2.80;;
30948;SDS011;17637;51.984;21.208;2023-08-30T14:04:25;4.60;;;3.22;;
30948;SDS011;17637;51.984;21.208;2023-08-30T14:06:58;3.85;;;2.78;;
30948;SDS011;17637;51.984;21.208;2023-08-30T14:09:30;3.50;;;2.53;;
30948;SDS011;17637;51.984;21.208;2023-08-30T14:12:02;2.67;;;2.47;;
30948;SDS011;17637;51.984;21.208;2023-08-30T14:14:35;2.47;;;2.00;;
30948;SDS011;17637;51.984;21.208;2023-08-30T14:17:07;2.35;;;2.15;;
30948;SDS011;17637;51.984;21.208;2023-08-30T14:19:39;2.28;;;2.08;;
30948;SDS011;17637;51.984;21.208;2023-08-30T14:22:11;2.90;;;2.47;;
30948;SDS011;17637;51.984;21.208;2023-08-30T14:24:43;3.33;;;3.03;;
30948;SDS011;17637;51.984;21.208;2023-08-30T14:27:33;2.50;;;2.30;;
30948;SDS011;17637;51.984;21.208;2023-08-30T14:30:05;2.83;;;2.60;;
30948;SDS011;17637;51.984;21.208;2023-08-30T14:32:38;2.53;;;2.33;;
30948;SDS011;17637;51.984;21.208;2023-08-30T14:35:10;3.47;;;2.47;;
30948;SDS011;17637;51.984;21.208;2023-08-30T14:37:42;2.28;;;2.08;;
30948;SDS011;17637;51.984;21.208;2023-08-30T14:40:14;3.45;;;2.72;;
30948;SDS011;17637;51.984;21.208;2023-08-30T14:42:46;3.30;;;2.25;;
30948;SDS011;17637;51.984;21.208;2023-08-30T14:45:18;2.45;;;2.25;;
30948;SDS011;17637;51.984;21.208;2023-08-30T14:47:50;2.63;;;2.42;;
30948;SDS011;17637;51.984;21.208;2023-08-30T14:50:22;2.58;;;2.33;;
30948;SDS011;17637;51.984;21.208;2023-08-30T14:52:54;2.78;;;2.58;;
30948;SDS011;17637;51.984;21.208;2023-08-30T14:55:26;4.28;;;2.50;;
30948;SDS011;17637;51.984;21.208;2023-08-30T14:57:58;3.03;;;2.67;;
30948;SDS011;17637;51.984;21.208;2023-08-30T15:00:30;2.45;;;1.80;;